createdAt,value
2023-09-28T00:01:23.530Z,19.25
2023-09-28T00:03:53.312Z,19.20
2023-09-28T00:06:21.560Z,19.19
2023-09-28T00:08:50.139Z,19.17
2023-09-28T00:11:18.020Z,19.17
2023-09-28T00:13:47.948Z,19.05
2023-09-28T00:16:15.757Z,18.96
2023-09-28T00:18:45.054Z,18.91
2023-09-28T00:21:31.702Z,18.84
2023-09-28T00:24:00.576Z,18.88
2023-09-28T00:26:28.074Z,18.91
2023-09-28T00:28:58.847Z,18.96
2023-09-28T00:31:26.347Z,18.89
2023-09-28T00:33:55.432Z,18.87
2023-09-28T00:36:23.846Z,18.86
2023-09-28T00:38:52.619Z,18.79
2023-09-28T00:41:20.558Z,18.78
2023-09-28T00:43:49.387Z,18.72
2023-09-28T00:46:19.319Z,18.70
2023-09-28T00:48:58.705Z,18.52
2023-09-28T00:51:29.162Z,18.48
2023-09-28T00:53:57.630Z,18.46
2023-09-28T00:56:26.956Z,18.46
2023-09-28T00:58:57.722Z,18.46
2023-09-28T01:01:30.608Z,18.42
2023-09-28T01:04:02.977Z,18.41
2023-09-28T01:06:32.180Z,18.41
2023-09-28T01:09:00.930Z,18.38
2023-09-28T01:11:29.540Z,18.23
2023-09-28T01:13:59.365Z,18.21
2023-09-28T01:16:28.471Z,18.17
2023-09-28T01:18:57.248Z,18.16
2023-09-28T01:21:26.019Z,18.05
2023-09-28T01:23:56.905Z,18.15
2023-09-28T01:26:24.541Z,18.13
2023-09-28T01:28:53.440Z,18.19
2023-09-28T01:31:21.097Z,18.19
2023-09-28T01:33:50.132Z,18.16
2023-09-28T01:36:18.776Z,18.17
2023-09-28T01:38:52.704Z,18.23
2023-09-28T01:41:22.559Z,18.20
2023-09-28T01:43:50.434Z,18.22
2023-09-28T01:46:19.115Z,18.20
2023-09-28T01:48:46.968Z,18.15
2023-09-28T01:51:15.401Z,18.20
2023-09-28T01:53:44.616Z,18.17
2023-09-28T01:56:13.235Z,18.08
2023-09-28T01:58:43.386Z,18.19
2023-09-28T02:01:22.155Z,18.08
2023-09-28T02:03:50.183Z,18.03
2023-09-28T02:06:19.824Z,18.04
2023-09-28T02:08:47.671Z,17.96
2023-09-28T02:11:17.123Z,17.88
2023-09-28T02:13:46.458Z,17.82
2023-09-28T02:16:14.994Z,17.70
2023-09-28T02:18:44.816Z,17.73
2023-09-28T02:21:15.431Z,17.72
2023-09-28T02:23:43.391Z,17.84
2023-09-28T02:26:11.967Z,17.84
2023-09-28T02:28:39.863Z,17.88
2023-09-28T02:31:10.434Z,17.82
2023-09-28T02:33:38.698Z,17.88
2023-09-28T02:36:07.538Z,17.90
2023-09-28T02:38:37.391Z,17.93
2023-09-28T02:41:05.941Z,17.96
2023-09-28T02:43:35.186Z,17.97
2023-09-28T02:46:04.516Z,18.01
2023-09-28T02:48:34.954Z,17.91
2023-09-28T02:51:04.500Z,17.94
2023-09-28T02:53:32.465Z,17.82
2023-09-28T02:56:01.088Z,17.82
2023-09-28T02:58:29.047Z,17.83
2023-09-28T03:00:59.194Z,17.87
2023-09-28T03:03:27.103Z,17.86
2023-09-28T03:05:57.359Z,17.89
2023-09-28T03:08:25.881Z,17.89
2023-09-28T03:10:54.730Z,17.90
2023-09-28T03:13:24.341Z,17.92
2023-09-28T03:15:53.106Z,17.92
2023-09-28T03:18:22.827Z,17.93
2023-09-28T03:20:51.601Z,17.93
2023-09-28T03:23:21.112Z,17.92
2023-09-28T03:25:49.703Z,17.95
2023-09-28T03:28:18.107Z,17.93
2023-09-28T03:30:46.697Z,17.91
2023-09-28T03:33:15.531Z,17.85
2023-09-28T03:35:43.218Z,17.88
2023-09-28T03:38:12.060Z,17.87
2023-09-28T03:40:44.767Z,17.85
2023-09-28T03:43:13.719Z,17.83
2023-09-28T03:45:42.702Z,17.71
2023-09-28T03:48:11.573Z,17.63
2023-09-28T03:50:40.275Z,17.63
2023-09-28T03:53:09.135Z,17.69
2023-09-28T03:55:37.729Z,17.72
2023-09-28T03:58:07.919Z,17.70
2023-09-28T04:00:36.550Z,17.71
2023-09-28T04:03:06.080Z,17.73
2023-09-28T04:05:34.637Z,17.71
2023-09-28T04:08:03.814Z,17.73
2023-09-28T04:10:34.617Z,17.75
2023-09-28T04:13:03.607Z,17.76
2023-09-28T04:15:33.503Z,17.70
2023-09-28T04:18:02.692Z,17.67
2023-09-28T04:20:31.275Z,17.66
2023-09-28T04:23:00.260Z,17.66
2023-09-28T04:25:30.702Z,17.55
2023-09-28T04:27:59.741Z,17.62
2023-09-28T04:30:28.837Z,17.56
2023-09-28T04:32:59.083Z,17.54
2023-09-28T04:35:27.833Z,17.51
2023-09-28T04:37:56.682Z,17.50
2023-09-28T04:40:26.990Z,17.54
2023-09-28T04:42:56.494Z,17.46
2023-09-28T04:45:25.209Z,17.37
2023-09-28T04:47:54.044Z,17.38
2023-09-28T04:50:24.339Z,17.30
2023-09-28T04:52:53.367Z,17.25
2023-09-28T04:55:22.503Z,17.17
2023-09-28T04:57:53.752Z,17.25
2023-09-28T05:00:22.486Z,17.23
2023-09-28T05:02:51.793Z,17.19
2023-09-28T05:05:20.764Z,17.29
2023-09-28T05:07:51.201Z,17.32
2023-09-28T05:10:19.974Z,17.32
2023-09-28T05:12:49.070Z,17.45
2023-09-28T05:15:18.203Z,17.48
2023-09-28T05:17:47.226Z,17.56
2023-09-28T05:20:16.039Z,17.66
2023-09-28T05:22:45.115Z,17.76
2023-09-28T05:25:14.078Z,17.88
2023-09-28T05:27:43.187Z,17.90
2023-09-28T05:30:13.328Z,17.94
2023-09-28T05:32:42.398Z,18.08
2023-09-28T05:35:11.753Z,18.15
2023-09-28T05:37:40.805Z,18.27
2023-09-28T05:40:11.169Z,18.31
2023-09-28T05:42:42.264Z,18.42
2023-09-28T05:45:12.008Z,18.49
2023-09-28T05:47:41.286Z,18.59
2023-09-28T05:50:10.653Z,18.69
2023-09-28T05:52:39.836Z,18.78
2023-09-28T05:55:09.185Z,18.88
2023-09-28T05:57:38.244Z,18.94
2023-09-28T06:00:10.806Z,19.04
2023-09-28T06:02:40.067Z,19.10
2023-09-28T06:05:11.174Z,19.22
2023-09-28T06:07:40.254Z,19.34
2023-09-28T06:10:10.468Z,19.30
2023-09-28T06:12:39.444Z,19.47
2023-09-28T06:15:10.736Z,19.61
2023-09-28T06:17:39.684Z,19.63
2023-09-28T06:20:10.413Z,19.73
2023-09-28T06:22:40.301Z,19.81
2023-09-28T06:25:10.140Z,19.97
2023-09-28T06:27:39.561Z,20.09
2023-09-28T06:30:11.403Z,20.23
2023-09-28T06:32:40.460Z,20.28
2023-09-28T06:35:11.448Z,20.38
2023-09-28T06:37:40.859Z,20.43
2023-09-28T06:40:10.531Z,20.50
2023-09-28T06:42:40.709Z,20.60
2023-09-28T06:45:13.734Z,20.61
2023-09-28T06:47:54.687Z,20.73
2023-09-28T06:50:31.645Z,20.85
2023-09-28T06:53:00.691Z,20.98
2023-09-28T06:55:29.379Z,21.06
2023-09-28T06:57:58.749Z,21.29
2023-09-28T07:00:30.671Z,21.36
2023-09-28T07:02:59.726Z,21.33
2023-09-28T07:05:28.636Z,21.52
2023-09-28T07:07:57.657Z,21.56
2023-09-28T07:10:26.419Z,21.52
2023-09-28T07:12:55.945Z,21.60
2023-09-28T07:15:24.651Z,21.67
2023-09-28T07:17:54.991Z,21.72
2023-09-28T07:20:24.029Z,21.84
2023-09-28T07:22:52.997Z,21.94
2023-09-28T07:25:22.535Z,22.01
2023-09-28T07:27:51.866Z,22.11
2023-09-28T07:30:21.562Z,21.96
2023-09-28T07:32:51.745Z,22.11
2023-09-28T07:35:22.285Z,22.07
2023-09-28T07:38:11.391Z,22.21
2023-09-28T07:40:47.433Z,22.16
2023-09-28T07:43:17.290Z,22.32
2023-09-28T07:45:46.253Z,22.39
2023-09-28T07:48:15.561Z,22.44
2023-09-28T07:50:45.794Z,22.53
2023-09-28T07:53:14.799Z,22.56
2023-09-28T07:55:43.656Z,22.64
2023-09-28T08:00:48.368Z,22.84
2023-09-28T08:03:17.502Z,22.89
2023-09-28T08:05:47.633Z,22.87
2023-09-28T08:08:18.958Z,22.98
2023-09-28T08:10:49.011Z,23.07
2023-09-28T08:13:19.078Z,22.91
2023-09-28T08:15:47.962Z,23.05
2023-09-28T08:18:16.947Z,22.93
2023-09-28T08:20:59.550Z,23.09
2023-09-28T08:23:37.326Z,23.07
2023-09-28T08:26:06.136Z,23.19
2023-09-28T08:28:35.085Z,23.20
2023-09-28T08:31:06.813Z,23.28
2023-09-28T08:33:35.794Z,23.35
2023-09-28T08:36:05.154Z,23.36
2023-09-28T08:38:34.163Z,23.42
2023-09-28T08:41:08.170Z,23.53
2023-09-28T08:43:44.128Z,23.56
2023-09-28T08:46:15.308Z,23.65
2023-09-28T08:48:47.687Z,23.63
2023-09-28T08:51:17.871Z,23.68
2023-09-28T08:53:51.297Z,23.89
2023-09-28T08:56:22.095Z,23.94
2023-09-28T08:58:51.994Z,23.95
2023-09-28T09:01:21.822Z,24.01
2023-09-28T09:03:51.599Z,23.85
2023-09-28T09:06:24.184Z,24.01
2023-09-28T09:08:56.559Z,23.94
2023-09-28T09:11:28.504Z,24.02
2023-09-28T09:13:58.229Z,23.86
2023-09-28T09:16:29.285Z,23.83
2023-09-28T09:18:59.422Z,23.88
2023-09-28T09:21:40.305Z,23.93
2023-09-28T09:24:11.795Z,23.83
2023-09-28T09:26:43.927Z,23.92
2023-09-28T09:29:14.045Z,23.69
2023-09-28T09:31:43.981Z,23.74
2023-09-28T09:34:13.851Z,23.83
2023-09-28T09:36:43.494Z,23.61
2023-09-28T09:39:23.683Z,23.64
2023-09-28T09:41:54.676Z,23.80
2023-09-28T09:44:25.701Z,23.88
2023-09-28T09:46:56.165Z,23.81
2023-09-28T09:49:27.470Z,23.87
2023-09-28T09:51:56.936Z,23.85
2023-09-28T09:54:26.008Z,23.69
2023-09-28T09:56:56.063Z,23.60
2023-09-28T09:59:25.428Z,23.48
2023-09-28T10:01:55.529Z,23.68
2023-09-28T10:04:27.755Z,23.70
2023-09-28T10:06:58.049Z,23.63
2023-09-28T10:09:28.990Z,23.63
2023-09-28T10:12:00.945Z,23.87
2023-09-28T10:14:30.098Z,23.96
2023-09-28T10:16:59.960Z,23.73
2023-09-28T10:19:30.145Z,23.87
2023-09-28T10:21:59.152Z,24.01
2023-09-28T10:24:33.071Z,24.08
2023-09-28T10:27:12.158Z,24.30
2023-09-28T10:29:42.515Z,24.06
2023-09-28T10:32:28.246Z,24.32
2023-09-28T10:35:29.758Z,24.61
2023-09-28T10:38:20.718Z,24.53
2023-09-28T10:40:53.357Z,24.46
2023-09-28T10:43:31.085Z,24.66
2023-09-28T10:46:03.372Z,24.46
2023-09-28T10:48:35.065Z,24.68
2023-09-28T10:51:04.612Z,24.68
2023-09-28T10:53:33.391Z,24.81
2023-09-28T10:56:04.921Z,24.81
2023-09-28T10:58:35.860Z,24.59
2023-09-28T11:01:07.863Z,24.58
2023-09-28T11:03:38.023Z,24.35
2023-09-28T11:06:09.598Z,24.65
2023-09-28T11:08:38.923Z,24.80
2023-09-28T11:11:08.158Z,25.08
2023-09-28T11:13:38.876Z,24.92
2023-09-28T11:16:08.712Z,25.21
2023-09-28T11:18:39.781Z,25.19
2023-09-28T11:21:09.247Z,25.02
2023-09-28T11:23:38.020Z,25.24
2023-09-28T11:26:07.439Z,25.39
2023-09-28T11:28:36.579Z,25.55
2023-09-28T11:31:10.623Z,25.81
2023-09-28T11:33:40.038Z,26.00
2023-09-28T11:36:12.688Z,26.12
2023-09-28T11:38:41.885Z,26.33
2023-09-28T11:41:10.936Z,26.44
2023-09-28T11:43:47.267Z,26.59
2023-09-28T11:46:20.447Z,26.73
2023-09-28T11:48:49.137Z,26.82
2023-09-28T11:51:18.478Z,26.95
2023-09-28T11:53:47.196Z,27.12
2023-09-28T11:56:17.936Z,27.31
2023-09-28T11:58:46.616Z,27.52
2023-09-28T12:01:15.672Z,27.55
2023-09-28T12:03:48.713Z,27.60
2023-09-28T12:06:19.090Z,27.78
2023-09-28T12:08:50.942Z,27.81
2023-09-28T12:11:20.484Z,27.61
2023-09-28T12:13:49.170Z,27.79
2023-09-28T12:16:18.176Z,27.92
2023-09-28T12:18:48.348Z,27.67
2023-09-28T12:21:17.483Z,27.64
2023-09-28T12:23:46.161Z,27.35
2023-09-28T12:26:15.579Z,27.31
2023-09-28T12:28:44.350Z,27.03
2023-09-28T12:31:13.665Z,26.47
2023-09-28T12:33:43.960Z,26.43
2023-09-28T12:36:15.641Z,26.30
2023-09-28T12:38:44.434Z,26.28
2023-09-28T12:41:13.560Z,25.81
2023-09-28T12:43:42.294Z,25.82
2023-09-28T12:46:12.316Z,25.76
2023-09-28T12:48:42.475Z,25.79
2023-09-28T12:51:12.368Z,25.36
2023-09-28T12:53:42.496Z,25.64
2023-09-28T12:56:11.614Z,25.57
2023-09-28T12:58:40.453Z,25.62
2023-09-28T13:01:11.392Z,25.63
2023-09-28T13:03:40.805Z,25.61
2023-09-28T13:06:10.852Z,25.58
2023-09-28T13:08:39.597Z,25.36
2023-09-28T13:11:15.057Z,25.31
2023-09-28T13:13:44.063Z,25.33
2023-09-28T13:16:14.772Z,25.30
2023-09-28T13:18:43.686Z,25.03
2023-09-28T13:21:15.196Z,25.09
2023-09-28T13:23:43.912Z,24.91
2023-09-28T13:26:15.070Z,24.88
2023-09-28T13:28:45.400Z,24.93
2023-09-28T13:31:15.299Z,24.95
2023-09-28T13:33:44.431Z,24.90
2023-09-28T13:36:16.122Z,24.91
2023-09-28T13:38:45.307Z,24.98
2023-09-28T13:41:15.911Z,24.96
2023-09-28T13:43:45.546Z,25.00
2023-09-28T13:46:14.653Z,25.01
2023-09-28T13:48:43.799Z,24.95
2023-09-28T13:51:13.178Z,25.00
2023-09-28T13:53:41.900Z,25.04
2023-09-28T13:56:11.356Z,25.02
2023-09-28T13:58:41.381Z,25.04
2023-09-28T14:01:14.876Z,25.05
2023-09-28T14:03:43.816Z,25.12
2023-09-28T14:06:15.302Z,25.08
2023-09-28T14:08:44.549Z,25.08
2023-09-28T14:11:13.983Z,25.11
2023-09-28T14:13:44.853Z,24.99
2023-09-28T14:16:13.845Z,25.02
2023-09-28T14:18:43.193Z,24.85
2023-09-28T14:21:12.529Z,24.82
2023-09-28T14:23:41.514Z,24.84
2023-09-28T14:26:10.691Z,24.81
2023-09-28T14:28:39.444Z,24.76
2023-09-28T14:31:10.323Z,24.87
2023-09-28T14:33:39.339Z,24.88
2023-09-28T14:36:08.701Z,24.89
2023-09-28T14:38:38.971Z,24.85
2023-09-28T14:41:08.074Z,24.85
2023-09-28T14:43:36.845Z,24.85
2023-09-28T14:46:05.885Z,24.91
2023-09-28T14:48:36.318Z,24.93
2023-09-28T14:51:05.318Z,24.89
2023-09-28T14:53:34.197Z,24.89
2023-09-28T14:56:03.619Z,24.80
2023-09-28T14:58:34.226Z,24.79
2023-09-28T15:01:03.337Z,24.82
2023-09-28T15:03:32.300Z,24.66
2023-09-28T15:06:03.811Z,24.66
2023-09-28T15:08:33.510Z,24.71
2023-09-28T15:11:03.262Z,24.55
2023-09-28T15:13:33.460Z,24.62
2023-09-28T15:16:02.510Z,24.61
2023-09-28T15:18:31.165Z,24.68
2023-09-28T15:21:00.202Z,24.61
2023-09-28T15:23:30.288Z,24.65
2023-09-28T15:26:03.673Z,24.73
2023-09-28T15:28:33.682Z,24.69
2023-09-28T15:31:02.721Z,24.54
2023-09-28T15:33:31.430Z,24.58
2023-09-28T15:36:00.636Z,24.53
2023-09-28T15:38:30.752Z,24.55
2023-09-28T15:40:59.931Z,24.53
2023-09-28T15:43:29.749Z,24.52
2023-09-28T15:45:58.846Z,24.50
2023-09-28T15:48:27.733Z,24.49
2023-09-28T15:50:56.779Z,24.45
2023-09-28T15:53:25.775Z,24.45
2023-09-28T15:55:56.202Z,24.44
2023-09-28T15:58:24.918Z,24.40
2023-09-28T16:00:53.894Z,24.34
2023-09-28T16:03:22.758Z,24.29
2023-09-28T16:05:51.863Z,24.22
2023-09-28T16:08:20.847Z,24.13
2023-09-28T16:10:50.050Z,24.09
2023-09-28T16:13:20.093Z,24.05
2023-09-28T16:15:49.177Z,23.92
2023-09-28T16:18:17.857Z,23.84
2023-09-28T16:20:46.896Z,23.78
2023-09-28T16:23:15.944Z,23.75
2023-09-28T16:25:44.980Z,23.71
2023-09-28T16:28:13.633Z,23.67
2023-09-28T16:30:44.032Z,23.62
2023-09-28T16:33:12.743Z,23.52
2023-09-28T16:35:41.870Z,23.49
2023-09-28T16:38:12.765Z,23.41
2023-09-28T16:40:42.018Z,23.37
2023-09-28T16:43:10.625Z,23.29
2023-09-28T16:45:39.798Z,23.25
2023-09-28T16:48:10.440Z,23.23
2023-09-28T16:50:39.717Z,23.13
2023-09-28T16:53:08.420Z,23.07
2023-09-28T16:55:37.449Z,23.03
2023-09-28T16:58:07.163Z,23.02
2023-09-28T17:00:36.157Z,22.94
2023-09-28T17:03:06.828Z,22.92
2023-09-28T17:05:37.469Z,22.91
2023-09-28T17:08:07.118Z,22.88
2023-09-28T17:10:36.170Z,22.82
2023-09-28T17:13:05.091Z,22.78
2023-09-28T17:15:34.497Z,22.78
2023-09-28T17:18:18.192Z,22.78
2023-09-28T17:20:51.635Z,22.78
2023-09-28T17:23:20.442Z,22.72
2023-09-28T17:25:51.186Z,22.68
2023-09-28T17:28:19.902Z,22.63
2023-09-28T17:30:48.977Z,22.60
2023-09-28T17:33:17.722Z,22.58
2023-09-28T17:35:46.818Z,22.54
2023-09-28T17:38:17.028Z,22.53
2023-09-28T17:40:46.101Z,22.50
2023-09-28T17:43:14.756Z,22.44
2023-09-28T17:45:45.289Z,22.38
2023-09-28T17:48:14.189Z,22.38
2023-09-28T17:50:43.704Z,22.38
2023-09-28T17:53:13.326Z,22.35
2023-09-28T17:55:44.625Z,22.34
2023-09-28T17:58:13.280Z,22.29
2023-09-28T18:00:42.356Z,22.27
2023-09-28T18:03:11.119Z,22.28
2023-09-28T18:05:40.285Z,22.25
2023-09-28T18:08:09.300Z,22.22
2023-09-28T18:10:38.401Z,22.21
2023-09-28T18:13:08.869Z,22.21
2023-09-28T18:15:38.562Z,22.18
2023-09-28T18:18:07.731Z,22.15
2023-09-28T18:20:36.802Z,22.13
2023-09-28T18:23:05.907Z,22.11
2023-09-28T18:25:35.175Z,22.08
2023-09-28T18:28:06.148Z,22.06
2023-09-28T18:30:36.570Z,22.02
2023-09-28T18:33:05.727Z,21.97
2023-09-28T18:35:34.921Z,21.97
2023-09-28T18:38:04.020Z,21.95
2023-09-28T18:40:33.158Z,21.91
2023-09-28T18:43:01.928Z,21.90
2023-09-28T18:45:30.871Z,21.88
2023-09-28T18:48:00.912Z,21.86
2023-09-28T18:50:30.004Z,21.83
2023-09-28T18:52:58.751Z,21.77
2023-09-28T18:55:29.114Z,21.80
2023-09-28T18:57:57.810Z,21.69
2023-09-28T19:00:27.255Z,21.53
2023-09-28T19:02:56.123Z,21.60
2023-09-28T19:05:26.690Z,21.53
2023-09-28T19:07:55.472Z,21.49
2023-09-28T19:10:24.474Z,21.29
2023-09-28T19:12:53.174Z,21.34
2023-09-28T19:15:22.429Z,21.34
2023-09-28T19:17:55.521Z,21.39
2023-09-28T19:20:26.840Z,21.22
2023-09-28T19:22:55.812Z,21.31
2023-09-28T19:25:24.758Z,21.30
2023-09-28T19:27:53.997Z,21.33
2023-09-28T19:30:23.912Z,21.33
2023-09-28T19:32:52.681Z,21.33
2023-09-28T19:35:21.921Z,21.30
2023-09-28T19:37:52.195Z,21.30
2023-09-28T19:40:21.730Z,21.30
2023-09-28T19:42:50.418Z,21.30
2023-09-28T19:45:19.766Z,21.31
2023-09-28T19:47:48.573Z,21.26
2023-09-28T19:50:18.570Z,21.26
2023-09-28T19:52:47.220Z,21.22
2023-09-28T19:55:17.806Z,21.20
2023-09-28T19:57:46.498Z,21.16
2023-09-28T20:00:16.453Z,21.13
2023-09-28T20:02:45.088Z,21.12
2023-09-28T20:05:14.212Z,21.10
2023-09-28T20:07:42.966Z,21.06
2023-09-28T20:10:12.516Z,21.03
2023-09-28T20:12:43.265Z,21.00
2023-09-28T20:15:12.875Z,20.94
2023-09-28T20:17:42.150Z,20.91
2023-09-28T20:20:12.650Z,20.89
2023-09-28T20:22:55.741Z,20.83
2023-09-28T20:25:26.159Z,20.80
2023-09-28T20:27:56.276Z,20.73
2023-09-28T20:30:25.373Z,20.72
2023-09-28T20:32:54.493Z,20.67
2023-09-28T20:35:23.693Z,20.63
2023-09-28T20:37:52.518Z,20.57
2023-09-28T20:40:21.675Z,20.57
2023-09-28T20:42:50.448Z,20.56
2023-09-28T20:45:21.313Z,20.55
2023-09-28T20:47:50.168Z,20.57
2023-09-28T20:50:19.188Z,20.51
2023-09-28T20:52:48.437Z,20.52
2023-09-28T20:55:18.273Z,20.47
2023-09-28T20:57:47.531Z,20.36
2023-09-28T21:00:17.182Z,20.24
2023-09-28T21:02:47.420Z,20.21
2023-09-28T21:05:16.579Z,20.13
2023-09-28T21:07:45.943Z,20.04
2023-09-28T21:10:15.374Z,20.01
2023-09-28T21:12:44.130Z,20.02
2023-09-28T21:15:13.327Z,20.01
2023-09-28T21:17:42.230Z,20.00
2023-09-28T21:20:14.932Z,19.99
2023-09-28T21:22:43.994Z,19.98
2023-09-28T21:25:12.964Z,19.96
2023-09-28T21:27:41.690Z,19.92
2023-09-28T21:30:12.648Z,19.86
2023-09-28T21:32:41.348Z,19.84
2023-09-28T21:35:10.988Z,19.83
2023-09-28T21:37:42.249Z,19.84
2023-09-28T21:40:12.212Z,19.86
2023-09-28T21:42:41.483Z,19.88
2023-09-28T21:45:11.459Z,19.94
2023-09-28T21:47:40.322Z,19.93
2023-09-28T21:50:09.928Z,19.90
2023-09-28T21:52:38.842Z,19.94
2023-09-28T21:55:09.955Z,19.96
2023-09-28T21:57:38.599Z,19.94
2023-09-28T22:00:30.230Z,19.92
2023-09-28T22:02:58.993Z,19.89
2023-09-28T22:05:28.560Z,19.85
2023-09-28T22:07:57.395Z,19.87
2023-09-28T22:10:28.219Z,19.90
2023-09-28T22:12:57.210Z,19.88
2023-09-28T22:15:26.347Z,19.90
2023-09-28T22:17:56.183Z,19.95
2023-09-28T22:20:25.747Z,19.96
2023-09-28T22:22:54.636Z,19.94
2023-09-28T22:25:23.626Z,19.85
2023-09-28T22:27:54.049Z,19.73
2023-09-28T22:30:23.459Z,19.67
2023-09-28T22:32:52.306Z,19.62
2023-09-28T22:35:22.118Z,19.55
2023-09-28T22:37:50.940Z,19.52
2023-09-28T22:40:28.608Z,19.53
2023-09-28T22:42:59.554Z,19.49
2023-09-28T22:45:28.698Z,19.29
2023-09-28T22:47:57.817Z,19.06
2023-09-28T22:50:26.935Z,18.78
2023-09-28T22:52:55.626Z,18.69
2023-09-28T22:55:24.642Z,18.60
2023-09-28T22:57:53.360Z,18.67
2023-09-28T23:00:23.810Z,18.68
2023-09-28T23:02:52.512Z,18.77
2023-09-28T23:05:21.734Z,18.73
2023-09-28T23:07:50.532Z,18.87
2023-09-28T23:10:19.559Z,18.94
2023-09-28T23:12:49.355Z,19.00
2023-09-28T23:15:18.556Z,19.04
2023-09-28T23:17:49.002Z,19.07
2023-09-28T23:20:23.984Z,19.09
2023-09-28T23:22:53.567Z,19.12
2023-09-28T23:25:22.892Z,19.09
2023-09-28T23:27:52.228Z,19.08
2023-09-28T23:30:21.683Z,19.04
2023-09-28T23:32:53.333Z,19.03
2023-09-28T23:35:25.300Z,19.02
2023-09-28T23:37:56.016Z,18.97
2023-09-28T23:40:25.656Z,18.93
2023-09-28T23:42:55.933Z,18.87
2023-09-28T23:45:29.179Z,18.82
2023-09-28T23:48:01.154Z,18.77
2023-09-28T23:50:30.398Z,18.81
2023-09-28T23:52:59.035Z,18.83
2023-09-28T23:55:28.185Z,18.86
2023-09-28T23:57:56.891Z,18.83
